createdAt,value
2022-09-21T00:00:56.589Z,87.10
2022-09-21T00:03:01.184Z,87.20
2022-09-21T00:05:06.665Z,87.40
2022-09-21T00:07:11.049Z,88.00
2022-09-21T00:09:15.397Z,88.20
2022-09-21T00:11:22.148Z,88.40
2022-09-21T00:13:28.424Z,88.80
2022-09-21T00:15:34.474Z,88.40
2022-09-21T00:17:39.425Z,88.60
2022-09-21T00:19:43.567Z,88.30
2022-09-21T00:21:47.771Z,88.20
2022-09-21T00:23:52.258Z,88.40
2022-09-21T00:26:06.525Z,88.30
2022-09-21T00:28:10.834Z,87.90
2022-09-21T00:30:15.485Z,88.40
2022-09-21T00:32:21.416Z,88.50
2022-09-21T00:34:26.021Z,88.90
2022-09-21T00:36:30.743Z,89.00
2022-09-21T00:38:35.782Z,89.40
2022-09-21T00:40:39.968Z,89.70
2022-09-21T00:42:44.611Z,89.20
2022-09-21T00:44:49.232Z,89.20
2022-09-21T00:46:56.860Z,89.50
2022-09-21T00:49:03.360Z,88.80
2022-09-21T00:51:09.446Z,88.90
2022-09-21T00:53:13.996Z,89.00
2022-09-21T00:55:24.205Z,89.40
2022-09-21T00:57:31.408Z,88.80
2022-09-21T00:59:38.670Z,89.00
2022-09-21T01:01:43.172Z,89.20
2022-09-21T01:03:47.982Z,89.30
2022-09-21T01:05:53.885Z,90.00
2022-09-21T01:08:02.085Z,89.20
2022-09-21T01:10:10.403Z,90.00
2022-09-21T01:12:28.511Z,90.10
2022-09-21T01:14:47.431Z,90.10
2022-09-21T01:17:03.581Z,90.90
2022-09-21T01:19:35.131Z,90.20
2022-09-21T01:21:51.909Z,90.50
2022-09-21T01:24:21.406Z,90.50
2022-09-21T01:26:43.979Z,90.90
2022-09-21T01:29:17.825Z,91.10
2022-09-21T01:31:28.112Z,90.80
2022-09-21T01:33:38.086Z,91.10
2022-09-21T01:35:47.668Z,90.70
2022-09-21T01:37:57.802Z,90.60
2022-09-21T01:40:06.510Z,91.10
2022-09-21T01:42:12.103Z,91.30
2022-09-21T01:44:22.176Z,91.50
2022-09-21T01:46:31.895Z,91.80
2022-09-21T01:48:41.239Z,91.90
2022-09-21T01:50:49.593Z,91.90
2022-09-21T01:52:59.829Z,92.10
2022-09-21T01:55:09.379Z,92.10
2022-09-21T01:57:20.445Z,91.90
2022-09-21T01:59:34.492Z,92.40
2022-09-21T02:01:44.652Z,92.30
2022-09-21T02:03:52.631Z,92.40
2022-09-21T02:05:58.644Z,92.30
2022-09-21T02:08:03.321Z,92.20
2022-09-21T02:10:11.076Z,92.20
2022-09-21T02:12:18.903Z,92.20
2022-09-21T02:14:27.676Z,91.90
2022-09-21T02:16:39.791Z,92.30
2022-09-21T02:18:57.915Z,92.30
2022-09-21T02:21:04.741Z,92.50
2022-09-21T02:23:17.008Z,92.40
2022-09-21T02:25:29.354Z,92.50
2022-09-21T02:27:39.694Z,92.30
2022-09-21T02:29:50.945Z,92.50
2022-09-21T02:32:00.877Z,92.60
2022-09-21T02:34:18.177Z,92.30
2022-09-21T02:36:30.033Z,92.20
2022-09-21T02:38:37.047Z,92.50
2022-09-21T02:40:45.775Z,92.40
2022-09-21T02:42:53.973Z,92.20
2022-09-21T02:45:06.337Z,92.10
2022-09-21T02:47:16.082Z,92.50
2022-09-21T02:49:23.495Z,92.90
2022-09-21T02:51:32.277Z,92.80
2022-09-21T02:53:38.835Z,92.40
2022-09-21T02:55:45.425Z,92.80
2022-09-21T02:57:51.104Z,92.60
2022-09-21T02:59:55.516Z,92.40
2022-09-21T03:02:02.646Z,92.50
2022-09-21T03:04:06.949Z,92.60
2022-09-21T03:06:11.394Z,93.00
2022-09-21T03:08:15.891Z,92.70
2022-09-21T03:10:20.869Z,92.90
2022-09-21T03:12:26.401Z,92.80
2022-09-21T03:14:31.440Z,92.90
2022-09-21T03:16:35.766Z,92.80
2022-09-21T03:18:43.239Z,92.80
2022-09-21T03:20:47.532Z,92.50
2022-09-21T03:22:51.690Z,92.40
2022-09-21T03:24:57.635Z,92.80
2022-09-21T03:27:01.858Z,92.80
2022-09-21T03:29:06.224Z,92.70
2022-09-21T03:31:10.475Z,92.00
2022-09-21T03:33:14.713Z,92.00
2022-09-21T03:35:21.678Z,92.20
2022-09-21T03:37:25.813Z,92.80
2022-09-21T03:39:29.987Z,93.00
2022-09-21T03:41:35.018Z,93.10
2022-09-21T03:43:39.148Z,93.20
2022-09-21T03:45:44.117Z,93.30
2022-09-21T03:47:48.229Z,93.20
2022-09-21T03:49:52.667Z,93.50
2022-09-21T03:51:58.472Z,93.50
2022-09-21T03:54:03.017Z,93.30
2022-09-21T03:56:07.369Z,93.20
2022-09-21T03:58:11.768Z,93.50
2022-09-21T04:00:17.567Z,93.50
2022-09-21T04:02:22.657Z,93.10
2022-09-21T04:04:26.985Z,93.20
2022-09-21T04:06:31.382Z,93.20
2022-09-21T04:08:37.264Z,93.40
2022-09-21T04:10:42.843Z,92.80
2022-09-21T04:12:47.795Z,92.30
2022-09-21T04:14:52.143Z,92.10
2022-09-21T04:16:56.961Z,92.00
2022-09-21T04:19:01.693Z,92.00
2022-09-21T04:21:06.523Z,91.60
2022-09-21T04:23:10.935Z,91.30
2022-09-21T04:25:17.044Z,91.70
2022-09-21T04:27:21.420Z,91.70
2022-09-21T04:29:25.596Z,91.60
2022-09-21T04:31:31.092Z,91.50
2022-09-21T04:33:35.433Z,91.80
2022-09-21T04:35:39.872Z,91.40
2022-09-21T04:37:44.693Z,91.90
2022-09-21T04:39:48.855Z,91.60
2022-09-21T04:41:54.591Z,91.40
2022-09-21T04:43:59.953Z,91.60
2022-09-21T04:46:08.560Z,91.70
2022-09-21T04:48:12.812Z,92.00
2022-09-21T04:50:17.383Z,92.10
2022-09-21T04:52:21.679Z,92.40
2022-09-21T04:54:25.960Z,92.50
2022-09-21T04:56:30.427Z,92.10
2022-09-21T04:58:36.867Z,92.20
2022-09-21T05:00:41.101Z,92.10
2022-09-21T05:02:45.339Z,93.00
2022-09-21T05:04:51.129Z,93.60
2022-09-21T05:06:55.574Z,93.70
2022-09-21T05:09:13.886Z,93.40
2022-09-21T05:11:19.746Z,93.30
2022-09-21T05:13:23.969Z,93.50
2022-09-21T05:15:30.058Z,93.50
2022-09-21T05:17:36.575Z,93.20
2022-09-21T05:19:40.827Z,93.50
2022-09-21T05:21:45.131Z,93.00
2022-09-21T05:23:49.312Z,92.30
2022-09-21T05:25:53.702Z,92.30
2022-09-21T05:27:57.997Z,91.70
2022-09-21T05:30:02.897Z,91.60
2022-09-21T05:32:18.967Z,91.80
2022-09-21T05:34:36.951Z,91.80
2022-09-21T05:36:50.040Z,92.20
2022-09-21T05:38:55.173Z,92.40
2022-09-21T05:41:00.131Z,92.50
2022-09-21T05:43:07.507Z,91.60
2022-09-21T05:45:16.496Z,91.50
2022-09-21T05:47:27.639Z,91.70
2022-09-21T05:49:45.961Z,91.10
2022-09-21T05:52:03.959Z,91.20
2022-09-21T05:54:16.845Z,90.80
2022-09-21T05:56:33.979Z,90.50
2022-09-21T05:58:47.458Z,90.20
2022-09-21T06:01:04.164Z,90.40
2022-09-21T06:03:29.059Z,90.30
2022-09-21T06:05:33.673Z,91.20
2022-09-21T06:07:37.946Z,91.60
2022-09-21T06:09:43.363Z,91.90
2022-09-21T06:11:47.771Z,91.70
2022-09-21T06:13:52.074Z,91.40
2022-09-21T06:15:56.495Z,90.60
2022-09-21T06:18:00.688Z,90.50
2022-09-21T06:20:08.278Z,90.40
2022-09-21T06:22:12.427Z,90.30
2022-09-21T06:24:19.480Z,90.20
2022-09-21T06:26:23.657Z,89.00
2022-09-21T06:28:28.216Z,88.50
2022-09-21T06:30:33.412Z,88.00
2022-09-21T06:32:37.635Z,88.30
2022-09-21T06:34:42.996Z,88.30
2022-09-21T06:36:48.562Z,87.50
2022-09-21T06:38:52.702Z,86.70
2022-09-21T06:40:57.255Z,85.50
2022-09-21T06:43:04.181Z,84.60
2022-09-21T06:45:10.540Z,83.80
2022-09-21T06:47:15.014Z,81.70
2022-09-21T06:49:19.303Z,80.40
2022-09-21T06:51:24.324Z,78.40
2022-09-21T06:53:31.777Z,75.50
2022-09-21T06:55:35.965Z,73.80
2022-09-21T06:57:40.403Z,73.70
2022-09-21T06:59:44.592Z,72.80
2022-09-21T07:01:48.922Z,72.10
2022-09-21T07:03:54.122Z,71.50
2022-09-21T07:05:58.493Z,66.80
2022-09-21T07:08:03.435Z,67.30
2022-09-21T07:10:14.322Z,67.20
2022-09-21T07:12:18.882Z,67.90
2022-09-21T07:14:26.370Z,67.60
2022-09-21T07:16:31.199Z,67.50
2022-09-21T07:18:43.402Z,66.00
2022-09-21T07:20:49.728Z,66.10
2022-09-21T07:22:53.978Z,64.90
2022-09-21T07:24:58.198Z,64.50
2022-09-21T07:27:03.832Z,64.40
2022-09-21T07:29:08.227Z,65.40
2022-09-21T07:31:15.159Z,65.70
2022-09-21T07:33:19.444Z,65.90
2022-09-21T07:35:23.791Z,66.90
2022-09-21T07:37:28.676Z,66.40
2022-09-21T07:39:33.089Z,65.60
2022-09-21T07:41:37.737Z,66.10
2022-09-21T07:43:43.695Z,66.10
2022-09-21T07:45:55.561Z,65.80
2022-09-21T07:48:04.397Z,65.30
2022-09-21T07:50:09.779Z,65.30
2022-09-21T07:52:15.266Z,65.80
2022-09-21T07:54:19.718Z,67.00
2022-09-21T07:56:24.147Z,67.00
2022-09-21T07:58:45.675Z,67.20
2022-09-21T08:00:51.305Z,67.20
2022-09-21T08:02:55.543Z,66.40
2022-09-21T08:04:59.725Z,67.20
2022-09-21T08:07:03.957Z,67.00
2022-09-21T08:09:08.722Z,66.80
2022-09-21T08:11:13.034Z,65.90
2022-09-21T08:13:17.247Z,65.20
2022-09-21T08:15:44.392Z,63.90
2022-09-21T08:17:47.134Z,63.70
2022-09-21T08:19:51.334Z,63.70
2022-09-21T08:21:57.821Z,65.40
2022-09-21T08:24:02.693Z,65.20
2022-09-21T08:26:08.019Z,65.40
2022-09-21T08:28:12.238Z,64.50
2022-09-21T08:30:16.540Z,63.90
2022-09-21T08:32:49.329Z,64.20
2022-09-21T08:34:51.202Z,64.80
2022-09-21T08:36:56.011Z,64.40
2022-09-21T08:39:00.902Z,64.60
2022-09-21T08:41:16.614Z,64.20
2022-09-21T08:43:32.058Z,64.90
2022-09-21T08:45:41.195Z,64.20
2022-09-21T08:47:49.319Z,63.70
2022-09-21T08:49:59.940Z,63.00
2022-09-21T08:52:08.396Z,61.70
2022-09-21T08:54:20.700Z,61.80
2022-09-21T08:56:41.890Z,60.80
2022-09-21T08:58:51.782Z,62.20
2022-09-21T09:01:22.309Z,62.80
2022-09-21T09:04:05.877Z,63.50
2022-09-21T09:06:26.519Z,62.50
2022-09-21T09:08:56.383Z,61.00
2022-09-21T09:11:11.783Z,60.30
2022-09-21T09:13:44.501Z,60.40
2022-09-21T09:16:03.819Z,60.00
2022-09-21T09:18:13.436Z,59.60
2022-09-21T09:20:23.901Z,59.90
2022-09-21T09:22:36.540Z,60.10
2022-09-21T09:24:44.800Z,60.60
2022-09-21T09:26:54.052Z,60.00
2022-09-21T09:29:02.128Z,59.60
2022-09-21T09:31:19.763Z,60.00
2022-09-21T09:33:27.952Z,59.90
2022-09-21T09:35:37.409Z,58.80
2022-09-21T09:37:44.315Z,58.80
2022-09-21T09:39:55.419Z,59.60
2022-09-21T09:42:35.087Z,59.90
2022-09-21T09:45:04.903Z,58.80
2022-09-21T09:47:14.068Z,58.40
2022-09-21T09:49:33.046Z,58.10
2022-09-21T09:51:40.038Z,57.70
2022-09-21T09:53:46.674Z,57.70
2022-09-21T09:55:52.675Z,56.50
2022-09-21T09:57:59.166Z,57.50
2022-09-21T10:00:09.700Z,58.30
2022-09-21T10:02:24.784Z,58.10
2022-09-21T10:04:29.493Z,58.00
2022-09-21T10:06:34.173Z,57.70
2022-09-21T10:08:46.629Z,58.10
2022-09-21T10:10:51.379Z,58.30
2022-09-21T10:12:56.561Z,58.60
2022-09-21T10:15:01.632Z,59.40
2022-09-21T10:17:09.190Z,60.10
2022-09-21T10:19:18.636Z,59.20
2022-09-21T10:21:25.881Z,58.50
2022-09-21T10:23:31.116Z,58.00
2022-09-21T10:25:40.178Z,57.60
2022-09-21T10:27:48.544Z,56.70
2022-09-21T10:29:52.893Z,56.80
2022-09-21T10:31:58.283Z,56.10
2022-09-21T10:34:16.061Z,56.10
2022-09-21T10:36:38.941Z,55.60
2022-09-21T10:38:43.199Z,55.40
2022-09-21T10:40:49.793Z,56.50
2022-09-21T10:42:56.223Z,57.50
2022-09-21T10:45:08.633Z,56.30
2022-09-21T10:47:24.214Z,56.10
2022-09-21T10:49:30.536Z,55.60
2022-09-21T10:51:34.919Z,55.40
2022-09-21T10:53:39.242Z,55.30
2022-09-21T10:56:04.849Z,55.00
2022-09-21T10:58:15.681Z,54.70
2022-09-21T11:00:35.549Z,54.40
2022-09-21T11:02:43.148Z,54.70
2022-09-21T11:04:50.900Z,55.40
2022-09-21T11:06:59.721Z,55.60
2022-09-21T11:09:08.196Z,55.50
2022-09-21T11:11:31.364Z,55.30
2022-09-21T11:13:42.307Z,54.60
2022-09-21T11:15:53.033Z,54.50
2022-09-21T11:18:11.705Z,55.10
2022-09-21T11:20:24.908Z,55.30
2022-09-21T11:22:36.100Z,55.50
2022-09-21T11:24:48.480Z,55.50
2022-09-21T11:26:59.264Z,55.90
2022-09-21T11:29:13.615Z,56.00
2022-09-21T11:31:53.042Z,56.30
2022-09-21T11:34:33.497Z,56.10
2022-09-21T11:36:55.898Z,55.70
2022-09-21T11:39:07.816Z,55.80
2022-09-21T11:41:46.019Z,56.20
2022-09-21T11:44:14.890Z,56.30
2022-09-21T11:46:26.468Z,56.00
2022-09-21T11:48:56.342Z,56.50
2022-09-21T11:51:06.710Z,56.00
2022-09-21T11:53:43.449Z,56.10
2022-09-21T11:56:05.325Z,55.70
2022-09-21T11:58:16.785Z,56.80
2022-09-21T12:00:25.138Z,57.90
2022-09-21T12:02:52.342Z,58.90
2022-09-21T12:05:03.626Z,59.70
2022-09-21T12:07:21.943Z,60.50
2022-09-21T12:09:49.570Z,60.50
2022-09-21T12:12:05.211Z,60.40
2022-09-21T12:14:22.291Z,60.60
2022-09-21T12:16:37.630Z,61.50
2022-09-21T12:18:48.381Z,61.70
2022-09-21T12:21:00.171Z,62.40
2022-09-21T12:23:09.179Z,62.70
2022-09-21T12:25:20.053Z,63.00
2022-09-21T12:27:30.777Z,63.00
2022-09-21T12:29:43.481Z,62.20
2022-09-21T12:31:56.901Z,62.30
2022-09-21T12:34:06.353Z,62.10
2022-09-21T12:36:17.328Z,62.30
2022-09-21T12:38:28.528Z,62.50
2022-09-21T12:40:39.451Z,62.30
2022-09-21T12:42:47.925Z,62.80
2022-09-21T12:44:57.248Z,62.80
2022-09-21T12:47:10.339Z,62.20
2022-09-21T12:49:20.042Z,62.30
2022-09-21T12:51:29.697Z,61.50
2022-09-21T12:53:37.837Z,61.30
2022-09-21T12:55:50.111Z,61.40
2022-09-21T12:58:18.317Z,60.00
2022-09-21T13:00:24.651Z,60.10
2022-09-21T13:02:36.458Z,60.40
2022-09-21T13:04:58.859Z,60.90
2022-09-21T13:07:35.084Z,61.80
2022-09-21T13:09:43.271Z,62.00
2022-09-21T13:11:56.784Z,62.00
2022-09-21T13:14:04.062Z,62.50
2022-09-21T13:16:23.286Z,62.60
2022-09-21T13:18:36.307Z,62.50
2022-09-21T13:20:42.384Z,62.40
2022-09-21T13:22:49.068Z,62.40
2022-09-21T13:25:06.335Z,62.60
2022-09-21T13:27:11.032Z,63.00
2022-09-21T13:29:40.164Z,63.20
2022-09-21T13:31:58.129Z,63.50
2022-09-21T13:34:23.289Z,63.40
2022-09-21T13:36:36.397Z,63.10
2022-09-21T13:39:15.311Z,61.90
2022-09-21T13:41:45.453Z,61.70
2022-09-21T13:44:05.101Z,60.80
2022-09-21T13:46:10.343Z,60.20
2022-09-21T13:48:27.792Z,59.50
2022-09-21T13:50:42.771Z,58.90
2022-09-21T13:52:52.116Z,58.90
2022-09-21T13:54:59.741Z,59.10
2022-09-21T13:57:19.925Z,59.50
2022-09-21T13:59:27.966Z,57.80
2022-09-21T14:01:46.617Z,58.00
2022-09-21T14:03:54.693Z,58.30
2022-09-21T14:06:07.643Z,59.40
2022-09-21T14:08:31.407Z,59.40
2022-09-21T14:10:38.879Z,59.60
2022-09-21T14:12:45.572Z,59.80
2022-09-21T14:15:25.232Z,59.40
2022-09-21T14:17:38.263Z,59.70
2022-09-21T14:20:30.264Z,59.40
2022-09-21T14:22:44.344Z,59.00
2022-09-21T14:24:51.456Z,59.20
2022-09-21T14:27:07.216Z,59.00
2022-09-21T14:29:21.033Z,59.40
2022-09-21T14:31:30.485Z,59.70
2022-09-21T14:33:44.278Z,60.10
2022-09-21T14:35:49.298Z,59.50
2022-09-21T14:37:58.852Z,59.40
2022-09-21T14:40:07.209Z,59.30
2022-09-21T14:42:19.617Z,59.20
2022-09-21T14:44:27.825Z,59.80
2022-09-21T14:46:53.895Z,60.00
2022-09-21T14:49:12.357Z,59.40
2022-09-21T14:51:24.106Z,59.50
2022-09-21T14:53:56.068Z,61.80
2022-09-21T14:56:22.973Z,62.10
2022-09-21T14:58:44.237Z,62.10
2022-09-21T15:00:50.346Z,62.40
2022-09-21T15:03:11.203Z,63.20
2022-09-21T15:05:27.318Z,63.30
2022-09-21T15:07:53.857Z,63.10
2022-09-21T15:10:43.444Z,63.20
2022-09-21T15:12:55.215Z,63.30
2022-09-21T15:15:07.276Z,63.30
2022-09-21T15:17:25.559Z,63.20
2022-09-21T15:19:30.281Z,63.00
2022-09-21T15:21:35.730Z,63.00
2022-09-21T15:23:41.263Z,63.50
2022-09-21T15:25:58.701Z,64.10
2022-09-21T15:28:04.887Z,63.60
2022-09-21T15:30:21.379Z,63.40
2022-09-21T15:32:34.173Z,64.00
2022-09-21T15:34:38.488Z,64.40
2022-09-21T15:36:44.656Z,64.60
2022-09-21T15:38:50.558Z,65.00
2022-09-21T15:41:01.429Z,65.00
2022-09-21T15:43:20.977Z,65.00
2022-09-21T15:45:28.518Z,65.10
2022-09-21T15:47:34.172Z,66.50
2022-09-21T15:49:38.883Z,67.20
2022-09-21T15:51:46.086Z,67.30
2022-09-21T15:53:54.105Z,67.30
2022-09-21T15:56:01.889Z,67.10
2022-09-21T15:58:22.432Z,68.60
2022-09-21T16:00:28.636Z,69.40
2022-09-21T16:02:38.703Z,69.60
2022-09-21T16:04:49.408Z,69.70
2022-09-21T16:07:04.776Z,69.60
2022-09-21T16:09:39.188Z,70.20
2022-09-21T16:11:45.352Z,70.90
2022-09-21T16:14:07.776Z,71.00
2022-09-21T16:16:13.884Z,71.00
2022-09-21T16:18:35.941Z,71.20
2022-09-21T16:20:44.036Z,71.10
2022-09-21T16:22:50.246Z,71.30
2022-09-21T16:24:56.600Z,70.50
2022-09-21T16:27:04.410Z,71.70
2022-09-21T16:29:20.793Z,71.10
2022-09-21T16:31:31.697Z,70.50
2022-09-21T16:33:42.407Z,70.10
2022-09-21T16:35:47.147Z,69.60
2022-09-21T16:37:58.343Z,69.40
2022-09-21T16:40:03.300Z,69.50
2022-09-21T16:42:12.071Z,69.70
2022-09-21T16:44:22.911Z,69.90
2022-09-21T16:46:28.944Z,69.70
2022-09-21T16:48:33.165Z,70.20
2022-09-21T16:50:38.290Z,69.80
2022-09-21T16:52:52.510Z,69.90
2022-09-21T16:54:58.777Z,70.10
2022-09-21T16:57:06.150Z,70.40
2022-09-21T16:59:21.821Z,71.30
2022-09-21T17:01:27.621Z,71.40
2022-09-21T17:03:34.840Z,71.40
2022-09-21T17:05:39.184Z,71.90
2022-09-21T17:07:43.395Z,72.30
2022-09-21T17:09:48.687Z,72.00
2022-09-21T17:11:54.598Z,72.00
2022-09-21T17:14:01.455Z,71.70
2022-09-21T17:16:08.158Z,71.60
2022-09-21T17:18:13.648Z,72.00
2022-09-21T17:20:24.455Z,81.90
2022-09-21T17:22:29.327Z,86.50
2022-09-21T17:24:49.934Z,87.30
2022-09-21T17:26:55.574Z,86.00
2022-09-21T17:28:59.882Z,82.60
2022-09-21T17:31:09.442Z,80.40
2022-09-21T17:33:13.723Z,78.10
2022-09-21T17:35:21.739Z,74.70
2022-09-21T17:37:26.930Z,73.70
2022-09-21T17:39:31.140Z,72.70
2022-09-21T17:41:41.822Z,71.90
2022-09-21T17:44:04.407Z,70.20
2022-09-21T17:46:17.730Z,69.70
2022-09-21T17:48:23.657Z,67.90
2022-09-21T17:50:29.473Z,67.00
2022-09-21T17:52:51.524Z,66.50
2022-09-21T17:54:56.570Z,63.10
2022-09-21T17:57:09.379Z,66.60
2022-09-21T17:59:26.545Z,62.60
2022-09-21T18:01:35.139Z,62.30
2022-09-21T18:03:41.882Z,69.60
2022-09-21T18:05:51.005Z,67.50
2022-09-21T18:07:55.874Z,66.10
2022-09-21T18:10:00.730Z,65.50
2022-09-21T18:12:39.441Z,69.60
2022-09-21T18:14:53.527Z,69.80
2022-09-21T18:17:09.948Z,69.10
2022-09-21T18:19:31.094Z,69.20
2022-09-21T18:21:40.845Z,64.90
2022-09-21T18:24:06.151Z,64.00
2022-09-21T18:26:16.617Z,69.90
2022-09-21T18:28:28.676Z,66.90
2022-09-21T18:30:36.203Z,68.60
2022-09-21T18:32:58.750Z,64.20
2022-09-21T18:35:31.158Z,64.00
2022-09-21T18:37:46.342Z,66.90
2022-09-21T18:40:02.641Z,67.70
2022-09-21T18:42:23.973Z,70.80
2022-09-21T18:44:36.025Z,66.00
2022-09-21T18:46:51.476Z,71.10
2022-09-21T18:49:03.550Z,64.40
2022-09-21T18:51:16.549Z,67.30
2022-09-21T18:53:28.180Z,68.70
2022-09-21T18:55:33.655Z,65.50
2022-09-21T18:57:38.431Z,69.10
2022-09-21T18:59:43.342Z,67.10
2022-09-21T19:01:50.757Z,68.90
2022-09-21T19:03:55.450Z,69.10
2022-09-21T19:06:26.809Z,68.40
2022-09-21T19:08:37.728Z,68.60
2022-09-21T19:10:49.377Z,69.10
2022-09-21T19:13:10.298Z,71.20
2022-09-21T19:15:42.249Z,70.90
2022-09-21T19:18:03.968Z,71.40
2022-09-21T19:20:32.150Z,71.90
2022-09-21T19:22:46.299Z,72.60
2022-09-21T19:25:00.731Z,73.00
2022-09-21T19:27:23.622Z,71.50
2022-09-21T19:29:39.934Z,70.30
2022-09-21T19:31:44.386Z,69.70
2022-09-21T19:33:51.062Z,69.10
2022-09-21T19:35:57.147Z,68.60
2022-09-21T19:38:05.120Z,67.40
2022-09-21T19:40:10.767Z,65.20
2022-09-21T19:42:29.838Z,66.20
2022-09-21T19:44:46.316Z,66.60
2022-09-21T19:47:01.073Z,66.00
2022-09-21T19:49:13.759Z,66.00
2022-09-21T19:51:28.972Z,64.10
2022-09-21T19:53:55.777Z,65.20
2022-09-21T19:56:21.762Z,67.30
2022-09-21T19:58:43.953Z,66.30
2022-09-21T20:00:53.581Z,66.20
2022-09-21T20:03:05.862Z,65.60
2022-09-21T20:05:15.469Z,65.10
2022-09-21T20:07:25.947Z,64.70
2022-09-21T20:09:40.004Z,65.80
2022-09-21T20:11:51.676Z,65.30
2022-09-21T20:14:08.455Z,65.60
2022-09-21T20:16:31.594Z,65.10
2022-09-21T20:18:43.301Z,65.00
2022-09-21T20:20:47.914Z,64.30
2022-09-21T20:22:52.780Z,64.70
2022-09-21T20:25:03.157Z,65.00
2022-09-21T20:27:27.022Z,64.80
2022-09-21T20:29:31.560Z,63.50
2022-09-21T20:31:36.313Z,66.60
2022-09-21T20:33:40.416Z,65.40
2022-09-21T20:35:45.075Z,64.00
2022-09-21T20:37:50.621Z,66.00
2022-09-21T20:39:55.702Z,65.70
2022-09-21T20:42:01.422Z,65.60
2022-09-21T20:44:05.738Z,66.20
2022-09-21T20:46:11.782Z,65.20
2022-09-21T20:48:16.128Z,65.40
2022-09-21T20:50:21.141Z,65.70
2022-09-21T20:52:25.513Z,65.00
2022-09-21T20:54:29.578Z,64.90
2022-09-21T20:56:34.210Z,65.80
2022-09-21T20:58:41.556Z,65.80
2022-09-21T21:00:46.192Z,65.40
2022-09-21T21:02:51.026Z,65.30
2022-09-21T21:04:55.238Z,64.90
2022-09-21T21:06:59.346Z,64.90
2022-09-21T21:09:03.708Z,64.70
2022-09-21T21:11:07.857Z,64.50
2022-09-21T21:13:12.030Z,64.30
2022-09-21T21:15:17.793Z,64.60
2022-09-21T21:17:22.011Z,64.40
2022-09-21T21:19:26.141Z,64.00
2022-09-21T21:21:30.395Z,64.80
2022-09-21T21:23:54.627Z,64.60
2022-09-21T21:26:05.378Z,64.70
2022-09-21T21:28:09.921Z,64.50
2022-09-21T21:30:15.195Z,64.70
2022-09-21T21:32:23.179Z,64.70
2022-09-21T21:34:27.491Z,64.40
2022-09-21T21:36:31.746Z,64.50
2022-09-21T21:38:38.375Z,64.40
2022-09-21T21:40:42.457Z,64.50
2022-09-21T21:42:47.210Z,64.70
2022-09-21T21:44:51.616Z,65.30
2022-09-21T21:47:02.849Z,64.70
2022-09-21T21:49:21.262Z,67.70
2022-09-21T21:51:25.387Z,66.80
2022-09-21T21:53:30.601Z,69.00
2022-09-21T21:55:34.673Z,67.50
2022-09-21T21:57:38.819Z,68.50
2022-09-21T21:59:43.614Z,68.00
2022-09-21T22:01:48.057Z,67.00
2022-09-21T22:03:55.357Z,66.40
2022-09-21T22:06:05.205Z,66.20
2022-09-21T22:08:14.413Z,66.50
2022-09-21T22:10:18.926Z,66.00
2022-09-21T22:12:23.253Z,65.90
2022-09-21T22:14:28.344Z,65.80
2022-09-21T22:16:34.896Z,65.60
2022-09-21T22:18:39.873Z,65.70
2022-09-21T22:20:44.714Z,65.20
2022-09-21T22:22:50.267Z,64.20
2022-09-21T22:24:54.491Z,65.00
2022-09-21T22:26:58.569Z,66.00
2022-09-21T22:29:04.863Z,65.80
2022-09-21T22:31:11.555Z,65.80
2022-09-21T22:33:15.778Z,65.60
2022-09-21T22:35:21.703Z,65.60
2022-09-21T22:37:25.899Z,65.40
2022-09-21T22:39:32.324Z,65.20
2022-09-21T22:41:38.500Z,65.50
2022-09-21T22:43:42.882Z,65.40
2022-09-21T22:45:47.094Z,65.20
2022-09-21T22:47:51.268Z,65.20
2022-09-21T22:49:56.399Z,65.40
2022-09-21T22:52:00.490Z,65.00
2022-09-21T22:54:04.825Z,65.20
2022-09-21T22:56:12.287Z,64.80
2022-09-21T22:58:16.660Z,64.90
2022-09-21T23:00:20.974Z,64.70
2022-09-21T23:02:25.329Z,64.50
2022-09-21T23:04:29.770Z,65.00
2022-09-21T23:06:36.040Z,64.70
2022-09-21T23:08:40.570Z,64.50
2022-09-21T23:10:44.886Z,64.50
2022-09-21T23:12:51.801Z,64.50
2022-09-21T23:14:55.973Z,64.30
2022-09-21T23:17:00.125Z,64.10
2022-09-21T23:19:04.729Z,64.20
2022-09-21T23:21:11.551Z,64.50
2022-09-21T23:23:15.685Z,64.40
2022-09-21T23:25:19.844Z,64.60
2022-09-21T23:27:24.542Z,64.30
2022-09-21T23:29:30.101Z,64.10
2022-09-21T23:31:35.570Z,64.40
2022-09-21T23:33:41.262Z,64.40
2022-09-21T23:35:45.456Z,64.00
2022-09-21T23:37:49.849Z,64.40
2022-09-21T23:39:54.198Z,64.50
2022-09-21T23:41:58.769Z,64.40
2022-09-21T23:44:04.151Z,64.40
2022-09-21T23:46:11.409Z,64.20
2022-09-21T23:48:15.648Z,64.00
2022-09-21T23:50:19.902Z,64.00
2022-09-21T23:52:24.296Z,63.90
2022-09-21T23:54:29.132Z,63.90
2022-09-21T23:56:34.024Z,63.90
2022-09-21T23:58:38.135Z,63.90
